Time;durP1;ratioP1;P1;durP2;ratioP2;P2;SDS_P1;SDS_P2;PMS_P1;PMS_P2;Temp;Humidity;BMP_temperature;BMP_pressure;BME280_temperature;BME280_humidity;BME280_pressure;Samples;Min_cycle;Max_cycle;Signal;HPM_P1;HPM_P2
2023/08/13 00:01:43;;;;;;;;;;;;;;;20.95;100.00;96027.94;10534666;28;1923;-72
2023/08/13 00:06:47;;;;;;;;;;;;;;;20.97;100.00;96034.66;10529776;28;1781;-72
2023/08/13 00:11:51;;;;;;;;;;;;;;;20.92;100.00;96034.06;10523308;28;2404;-72
2023/08/13 00:16:55;;;;;;;;;;;;;;;20.91;100.00;96027.81;10532313;28;2276;-72
2023/08/13 00:21:58;;;;;;;;;;;;;;;20.93;100.00;96025.56;10533206;28;2584;-72
2023/08/13 00:27:11;;;;;;;;;;;;;;;21.00;100.00;96025.81;10525359;28;1928;-71
2023/08/13 00:32:19;;;;;;;;;;;;;;;20.95;100.00;96027.94;10529472;28;2012;-72
2023/08/13 00:37:22;;;;;;;;;;;;;;;20.87;100.00;96026.88;10527447;28;2122;-72
2023/08/13 00:42:26;;;;;;;;;;;;;;;20.84;100.00;96016.59;10545071;28;4991;-72
2023/08/13 00:47:30;;;;;;;;;;;;;;;20.89;100.00;96018.34;10530516;28;2017;-72
2023/08/13 00:52:33;;;;;;;;;;;;;;;20.87;100.00;96020.63;10524088;28;2009;-73
2023/08/13 00:57:36;;;;;;;;;;;;;;;20.85;100.00;96010.00;10545933;28;1955;-73
2023/08/13 01:02:40;;;;;;;;;;;;;;;20.86;100.00;96016.25;10527656;28;2020;-72
2023/08/13 01:07:44;;;;;;;;;;;;;;;20.77;100.00;96019.06;10521173;28;1983;-73
2023/08/13 01:12:49;;;;;;;;;;;;;;;20.73;100.00;96026.31;10535128;28;1964;-73
2023/08/13 01:17:53;;;;;;;;;;;;;;;20.65;100.00;96030.72;10528535;28;1990;-72
2023/08/13 01:22:56;;;;;;;;;;;;;;;20.61;100.00;96045.38;10524355;28;2365;-72
2023/08/13 01:28:00;;;;;;;;;;;;;;;20.67;100.00;96044.03;10528002;28;2364;-72
2023/08/13 01:33:03;;;;;;;;;;;;;;;20.56;100.00;96042.84;10474728;28;1419898;-73
2023/08/13 01:38:07;;;;;;;;;;;;;;;20.55;100.00;96041.22;10543184;28;1963;-72
2023/08/13 01:43:25;;;;;;;;;;;;;;;20.51;100.00;96028.25;10535831;28;4572;-74
2023/08/13 01:48:28;;;;;;;;;;;;;;;20.49;100.00;96024.25;10533711;28;1966;-71
2023/08/13 01:53:32;;;;;;;;;;;;;;;20.45;100.00;96015.13;10553373;27;1918;-72
2023/08/13 01:58:36;;;;;;;;;;;;;;;20.41;100.00;96014.13;10529845;28;1912;-73
2023/08/13 02:03:39;;;;;;;;;;;;;;;20.36;100.00;96023.34;10536183;28;2219;-72
2023/08/13 02:08:42;;;;;;;;;;;;;;;20.46;100.00;96016.72;10538232;28;1910;-71
2023/08/13 02:14:11;;;;;;;;;;;;;;;20.50;100.00;96013.00;10539011;28;1933;-72
2023/08/13 02:19:14;;;;;;;;;;;;;;;20.49;100.00;96022.31;10534497;28;2246;-73
2023/08/13 02:24:16;;;;;;;;;;;;;;;20.47;100.00;96018.31;10536414;28;2064;-72
2023/08/13 02:29:19;;;;;;;;;;;;;;;20.56;100.00;96015.53;10536748;28;1968;-72
2023/08/13 02:34:30;;;;;;;;;;;;;;;20.64;100.00;96009.22;10532912;28;2270;-73
2023/08/13 02:39:36;;;;;;;;;;;;;;;20.57;100.00;96017.13;10536747;28;1909;-73
2023/08/13 02:44:39;;;;;;;;;;;;;;;20.38;100.00;96021.06;10542844;28;4517;-73
2023/08/13 02:49:44;;;;;;;;;;;;;;;20.42;100.00;96019.28;10534716;28;1905;-76
2023/08/13 02:54:47;;;;;;;;;;;;;;;20.36;100.00;96027.97;10536354;28;1961;-73
2023/08/13 02:59:54;;;;;;;;;;;;;;;20.07;100.00;96034.22;10536733;28;2127;-72
2023/08/13 03:05:04;;;;;;;;;;;;;;;19.92;100.00;96024.69;10541317;28;1890;-72
2023/08/13 03:10:08;;;;;;;;;;;;;;;19.88;100.00;96023.72;10509814;28;2100;-71
2023/08/13 03:15:11;;;;;;;;;;;;;;;19.76;100.00;96021.66;10541184;28;2429;-72
2023/08/13 03:20:15;;;;;;;;;;;;;;;19.63;100.00;96009.84;10539711;28;2482;-71
2023/08/13 03:25:25;;;;;;;;;;;;;;;19.45;100.00;96014.50;10540449;28;2016;-73
2023/08/13 03:30:31;;;;;;;;;;;;;;;19.43;100.00;96019.50;10545191;27;1923;-72
2023/08/13 03:35:34;;;;;;;;;;;;;;;19.34;100.00;96012.44;10537091;28;2072;-71
2023/08/13 03:40:38;;;;;;;;;;;;;;;19.21;100.00;96021.59;10531989;28;4536;-73
2023/08/13 03:45:44;;;;;;;;;;;;;;;19.14;100.00;96027.53;10537062;28;1988;-72
2023/08/13 03:50:49;;;;;;;;;;;;;;;19.03;100.00;96031.72;10538502;28;1931;-73
2023/08/13 03:56:05;;;;;;;;;;;;;;;19.02;100.00;96028.22;10548766;28;1812;-72
2023/08/13 04:01:13;;;;;;;;;;;;;;;19.01;100.00;96017.59;10535342;28;1890;-72
2023/08/13 04:06:18;;;;;;;;;;;;;;;19.00;100.00;96022.25;10529947;28;1941;-72
2023/08/13 04:11:24;;;;;;;;;;;;;;;19.04;100.00;96028.69;10531713;28;2451;-73
2023/08/13 04:16:27;;;;;;;;;;;;;;;19.02;100.00;96027.38;10533053;28;2098;-73
2023/08/13 04:21:30;;;;;;;;;;;;;;;19.05;100.00;96030.28;10530465;28;2024;-72
2023/08/13 04:26:33;;;;;;;;;;;;;;;19.15;100.00;96021.00;10533155;28;1932;-71
2023/08/13 04:31:41;;;;;;;;;;;;;;;19.18;100.00;96029.31;10543891;28;1981;-72
2023/08/13 04:36:44;;;;;;;;;;;;;;;19.42;100.00;96034.25;10528871;28;1952;-72
2023/08/13 04:41:48;;;;;;;;;;;;;;;19.74;100.00;96026.66;10534030;28;2036;-74
2023/08/13 04:46:52;;;;;;;;;;;;;;;20.09;100.00;96008.22;10527783;28;1985;-72
2023/08/13 04:51:58;;;;;;;;;;;;;;;20.37;100.00;96002.28;10534314;28;1960;-73
2023/08/13 04:57:02;;;;;;;;;;;;;;;20.67;100.00;96003.88;10540939;28;2047;-72
2023/08/13 05:02:06;;;;;;;;;;;;;;;21.03;100.00;96003.28;10545647;28;2016;-72
2023/08/13 05:07:09;;;;;;;;;;;;;;;21.41;100.00;95983.16;10529157;28;1998;-72
2023/08/13 05:12:12;;;;;;;;;;;;;;;21.67;100.00;95980.13;10546235;28;2053;-72
2023/08/13 05:17:17;;;;;;;;;;;;;;;21.80;100.00;95976.28;10534776;28;1972;-72
2023/08/13 05:22:21;;;;;;;;;;;;;;;22.31;100.00;95970.50;10542133;28;1929;-73
2023/08/13 05:27:30;;;;;;;;;;;;;;;22.46;100.00;95967.06;10538275;28;1961;-73
2023/08/13 05:32:36;;;;;;;;;;;;;;;22.66;100.00;95970.78;10539769;28;1989;-73
2023/08/13 05:37:43;;;;;;;;;;;;;;;22.75;100.00;95968.69;10533921;28;2244;-72
2023/08/13 05:42:48;;;;;;;;;;;;;;;22.84;100.00;95968.53;10538334;28;1998;-71
2023/08/13 05:47:54;;;;;;;;;;;;;;;22.92;100.00;95971.19;10538152;28;2114;-71
2023/08/13 05:53:01;;;;;;;;;;;;;;;23.19;100.00;95980.56;10532982;28;1967;-72
2023/08/13 05:58:05;;;;;;;;;;;;;;;23.01;100.00;95965.56;10536833;28;1952;-72
2023/08/13 06:03:09;;;;;;;;;;;;;;;22.78;100.00;95964.47;10539626;28;2313;-71
2023/08/13 06:08:15;;;;;;;;;;;;;;;22.60;100.00;95953.78;10552353;27;1969;-72
2023/08/13 06:13:20;;;;;;;;;;;;;;;22.85;100.00;95960.00;10519057;28;1980;-71
2023/08/13 06:18:27;;;;;;;;;;;;;;;23.45;100.00;95949.91;10534165;28;2240;-73
2023/08/13 06:23:30;;;;;;;;;;;;;;;24.00;100.00;95945.44;10534965;28;1983;-72
2023/08/13 06:28:33;;;;;;;;;;;;;;;24.80;100.00;95938.63;10531545;28;1843;-72
2023/08/13 06:33:38;;;;;;;;;;;;;;;24.96;100.00;95929.53;10532308;28;1898;-73
2023/08/13 06:38:42;;;;;;;;;;;;;;;25.32;100.00;95929.09;10535651;28;1961;-73
2023/08/13 06:43:48;;;;;;;;;;;;;;;25.78;100.00;95929.13;10532085;28;2036;-73
2023/08/13 06:48:52;;;;;;;;;;;;;;;25.67;100.00;95922.59;10542719;27;1957;-74
2023/08/13 06:53:56;;;;;;;;;;;;;;;24.69;100.00;95932.13;10531755;28;1994;-71
2023/08/13 06:59:01;;;;;;;;;;;;;;;24.24;100.00;95930.72;10545878;28;2411;-72
2023/08/13 07:04:07;;;;;;;;;;;;;;;24.68;100.00;95933.25;10534685;28;1985;-72
2023/08/13 07:09:11;;;;;;;;;;;;;;;25.38;100.00;95926.00;10544871;28;1898;-73
2023/08/13 07:14:15;;;;;;;;;;;;;;;25.43;100.00;95928.47;10534108;28;1914;-73
2023/08/13 07:19:17;;;;;;;;;;;;;;;25.15;100.00;95932.28;10547406;27;1943;-73
2023/08/13 07:24:21;;;;;;;;;;;;;;;25.65;100.00;95933.22;10537488;28;1937;-74
2023/08/13 07:29:29;;;;;;;;;;;;;;;25.98;100.00;95931.81;10528494;28;1882;-73
2023/08/13 07:34:35;;;;;;;;;;;;;;;26.47;100.00;95931.00;10529947;28;2063;-73
2023/08/13 07:39:41;;;;;;;;;;;;;;;26.16;100.00;95938.41;10527542;28;2052;-72
2023/08/13 07:44:47;;;;;;;;;;;;;;;26.51;100.00;95931.84;10536242;28;1927;-72
2023/08/13 07:49:51;;;;;;;;;;;;;;;26.62;100.00;95932.78;10529189;28;1985;-71
2023/08/13 07:54:54;;;;;;;;;;;;;;;26.85;100.00;95927.19;10521436;28;2302;-72
2023/08/13 08:00:01;;;;;;;;;;;;;;;27.48;100.00;95924.38;10528772;28;1952;-72
2023/08/13 08:05:07;;;;;;;;;;;;;;;27.05;100.00;95908.50;10529831;28;2131;-72
2023/08/13 08:10:14;;;;;;;;;;;;;;;26.44;100.00;95915.19;10530360;28;1841;-71
2023/08/13 08:15:21;;;;;;;;;;;;;;;27.09;100.00;95918.41;10531113;28;1882;-72
2023/08/13 08:25:44;;;;;;;;;;;;;;;27.19;100.00;95925.25;10528327;28;2020;-71
2023/08/13 08:30:51;;;;;;;;;;;;;;;26.68;100.00;95909.22;10523666;28;2082;-73
2023/08/13 08:35:56;;;;;;;;;;;;;;;26.63;100.00;95913.09;10532483;28;1875;-72
2023/08/13 08:40:59;;;;;;;;;;;;;;;27.31;100.00;95913.94;10528683;28;1975;-72
2023/08/13 08:46:02;;;;;;;;;;;;;;;28.58;100.00;95898.03;10532461;28;1984;-73
2023/08/13 08:51:28;;;;;;;;;;;;;;;28.83;100.00;95906.44;10531405;28;2253;-72
2023/08/13 08:56:32;;;;;;;;;;;;;;;28.45;100.00;95908.63;10538952;28;1990;-72
2023/08/13 09:01:36;;;;;;;;;;;;;;;27.90;100.00;95903.88;10534581;28;1846;-72
2023/08/13 09:06:47;;;;;;;;;;;;;;;27.43;100.00;95910.91;10532609;28;1981;-71
2023/08/13 09:11:52;;;;;;;;;;;;;;;26.79;100.00;95909.38;10528394;28;1898;-73
2023/08/13 09:16:58;;;;;;;;;;;;;;;26.99;100.00;95907.25;10539473;28;1863;-73
2023/08/13 09:22:06;;;;;;;;;;;;;;;27.47;100.00;95900.69;10534969;28;1882;-72
2023/08/13 09:27:10;;;;;;;;;;;;;;;27.82;100.00;95882.88;10537575;28;1979;-73
2023/08/13 09:32:17;;;;;;;;;;;;;;;27.40;100.00;95886.03;10536434;28;2043;-74
2023/08/13 09:37:23;;;;;;;;;;;;;;;27.53;100.00;95881.03;10546843;27;2189;-72
2023/08/13 09:42:30;;;;;;;;;;;;;;;27.71;100.00;95870.97;10529263;28;1940;-73
2023/08/13 09:47:33;;;;;;;;;;;;;;;27.87;100.00;95874.25;10533599;28;1919;-72
2023/08/13 09:52:37;;;;;;;;;;;;;;;27.65;100.00;95861.41;10535493;28;1748;-72
2023/08/13 09:57:46;;;;;;;;;;;;;;;27.87;100.00;95862.41;10535004;28;1896;-72
2023/08/13 10:02:51;;;;;;;;;;;;;;;27.92;100.00;95860.06;10532454;28;2128;-72
2023/08/13 10:07:54;;;;;;;;;;;;;;;28.06;100.00;95861.34;10548345;28;1914;-73
2023/08/13 10:12:59;;;;;;;;;;;;;;;28.04;100.00;95866.47;10527036;28;2054;-72
2023/08/13 10:18:08;;;;;;;;;;;;;;;27.85;100.00;95862.78;10531633;28;1950;-74
2023/08/13 10:23:12;;;;;;;;;;;;;;;28.11;100.00;95866.50;10538571;28;1815;-72
2023/08/13 10:28:19;;;;;;;;;;;;;;;27.95;100.00;95858.53;10509801;28;1973;-72
2023/08/13 10:33:25;;;;;;;;;;;;;;;28.24;100.00;95859.47;10530799;28;1945;-73
2023/08/13 10:38:33;;;;;;;;;;;;;;;28.29;100.00;95857.16;10531149;28;1830;-73
2023/08/13 10:43:40;;;;;;;;;;;;;;;28.58;100.00;95854.56;10532351;28;2375;-74
2023/08/13 10:48:42;;;;;;;;;;;;;;;28.48;100.00;95847.81;10528755;28;1970;-74
2023/08/13 10:53:46;;;;;;;;;;;;;;;28.16;100.00;95852.34;10535502;28;1827;-72
2023/08/13 10:58:50;;;;;;;;;;;;;;;28.27;100.00;95842.13;10529332;28;1930;-74
2023/08/13 11:03:58;;;;;;;;;;;;;;;28.63;100.00;95839.56;10537499;28;2023;-73
2023/08/13 11:09:02;;;;;;;;;;;;;;;28.72;100.00;95837.25;10536289;28;1999;-73
2023/08/13 11:14:06;;;;;;;;;;;;;;;29.27;100.00;95837.03;10540987;28;1879;-73
2023/08/13 11:19:13;;;;;;;;;;;;;;;28.97;100.00;95840.91;10531211;28;1816;-73
2023/08/13 11:24:16;;;;;;;;;;;;;;;28.66;100.00;95827.75;10528803;28;1913;-75
2023/08/13 11:29:23;;;;;;;;;;;;;;;28.71;100.00;95830.13;10525698;28;1831;-73
2023/08/13 11:34:28;;;;;;;;;;;;;;;28.92;100.00;95826.66;10529214;28;2097;-73
2023/08/13 11:39:33;;;;;;;;;;;;;;;28.97;100.00;95829.84;10533681;28;2429;-74
2023/08/13 11:44:40;;;;;;;;;;;;;;;28.66;100.00;95825.75;10532155;28;4517;-72
2023/08/13 11:49:46;;;;;;;;;;;;;;;28.68;100.00;95812.31;10532693;28;1862;-73
2023/08/13 11:54:49;;;;;;;;;;;;;;;28.72;100.00;95809.59;10524125;28;1801;-73
2023/08/13 11:59:54;;;;;;;;;;;;;;;28.80;100.00;95808.41;10533503;28;1916;-73
2023/08/13 12:04:59;;;;;;;;;;;;;;;28.66;100.00;95791.78;10544495;28;1984;-73
2023/08/13 12:10:03;;;;;;;;;;;;;;;28.94;100.00;95796.63;10528195;28;2091;-72
2023/08/13 12:15:13;;;;;;;;;;;;;;;28.65;100.00;95781.91;10536762;28;2005;-73
2023/08/13 12:20:16;;;;;;;;;;;;;;;29.28;100.00;95786.81;10523854;28;1823;-72
2023/08/13 12:25:20;;;;;;;;;;;;;;;29.40;100.00;95780.09;10541481;28;1977;-71
2023/08/13 12:30:25;;;;;;;;;;;;;;;29.17;100.00;95768.59;10528631;28;1859;-73
2023/08/13 12:35:29;;;;;;;;;;;;;;;29.44;100.00;95760.69;10545057;28;2444;-73
2023/08/13 12:40:37;;;;;;;;;;;;;;;29.33;100.00;95752.41;10533874;28;1933;-73
2023/08/13 12:45:41;;;;;;;;;;;;;;;29.26;100.00;95752.38;10533671;28;1962;-73
2023/08/13 12:50:47;;;;;;;;;;;;;;;29.42;100.00;95741.72;10532603;28;1949;-73
2023/08/13 12:55:56;;;;;;;;;;;;;;;29.44;100.00;95736.56;10548614;28;1863;-73
2023/08/13 13:01:03;;;;;;;;;;;;;;;29.59;100.00;95726.31;10525051;28;1909;-73
2023/08/13 13:06:08;;;;;;;;;;;;;;;29.34;100.00;95732.63;10534372;28;2131;-74
2023/08/13 13:11:13;;;;;;;;;;;;;;;29.66;100.00;95726.28;10533194;28;2236;-72
2023/08/13 13:16:19;;;;;;;;;;;;;;;30.13;100.00;95727.75;10531129;28;1918;-74
2023/08/13 13:21:25;;;;;;;;;;;;;;;30.33;100.00;95718.97;10528688;28;1866;-74
2023/08/13 13:26:32;;;;;;;;;;;;;;;29.88;100.00;95727.00;10529264;28;2003;-73
2023/08/13 13:31:35;;;;;;;;;;;;;;;30.04;100.00;95723.81;10532087;28;2344;-72
2023/08/13 13:36:39;;;;;;;;;;;;;;;30.21;100.00;95711.88;10554958;27;1880;-72
2023/08/13 13:41:46;;;;;;;;;;;;;;;30.52;100.00;95707.38;10540996;28;4735;-73
2023/08/13 13:46:53;;;;;;;;;;;;;;;30.16;100.00;95704.00;10530118;28;2038;-73
2023/08/13 13:51:59;;;;;;;;;;;;;;;30.19;100.00;95707.94;10536421;28;1837;-73
2023/08/13 13:57:03;;;;;;;;;;;;;;;30.13;100.00;95697.25;10532510;28;2001;-72
2023/08/13 14:02:08;;;;;;;;;;;;;;;29.98;100.00;95695.72;10535069;28;1842;-72
2023/08/13 14:07:11;;;;;;;;;;;;;;;30.03;100.00;95698.09;10536546;28;1976;-72
2023/08/13 14:12:15;;;;;;;;;;;;;;;30.38;100.00;95701.91;10539775;28;1898;-73
2023/08/13 14:17:21;;;;;;;;;;;;;;;30.27;100.00;95687.31;10538347;28;1862;-72
2023/08/13 14:22:36;;;;;;;;;;;;;;;30.52;100.00;95681.63;10553551;28;1690;-73
2023/08/13 14:27:39;;;;;;;;;;;;;;;30.68;100.00;95674.44;10544374;28;2365;-72
2023/08/13 14:32:44;;;;;;;;;;;;;;;30.62;100.00;95680.78;10537868;28;1842;-72
2023/08/13 14:37:55;;;;;;;;;;;;;;;30.67;100.00;95683.97;10533147;28;1927;-73
2023/08/13 14:43:02;;;;;;;;;;;;;;;30.80;100.00;95675.94;10545753;28;1854;-73
2023/08/13 14:48:07;;;;;;;;;;;;;;;30.44;100.00;95672.56;10528521;28;1957;-71
2023/08/13 14:53:11;;;;;;;;;;;;;;;30.28;100.00;95680.56;10537477;28;1842;-73
2023/08/13 14:58:18;;;;;;;;;;;;;;;30.55;100.00;95676.06;10542650;28;1839;-72
2023/08/13 15:03:22;;;;;;;;;;;;;;;29.81;100.00;95679.94;10535974;28;1950;-73
2023/08/13 15:08:28;;;;;;;;;;;;;;;29.66;100.00;95679.19;10551031;27;1906;-76
2023/08/13 15:13:39;;;;;;;;;;;;;;;29.31;100.00;95677.25;10538055;28;1886;-72
2023/08/13 15:19:06;;;;;;;;;;;;;;;28.91;100.00;95670.91;10558256;27;1929;-73
2023/08/13 15:24:10;;;;;;;;;;;;;;;28.86;100.00;95660.22;10537023;28;2267;-73
2023/08/13 15:29:15;;;;;;;;;;;;;;;28.84;100.00;95659.84;10541562;28;1980;-73
2023/08/13 15:34:24;;;;;;;;;;;;;;;29.11;100.00;95673.31;10536062;28;1933;-73
2023/08/13 15:39:38;;;;;;;;;;;;;;;29.71;100.00;95675.22;10530055;28;1774;-77
2023/08/13 15:44:53;;;;;;;;;;;;;;;30.31;100.00;95666.69;10538224;28;4607;-74
2023/08/13 15:49:57;;;;;;;;;;;;;;;30.54;100.00;95657.84;10535260;28;1902;-73
2023/08/13 15:55:05;;;;;;;;;;;;;;;30.15;100.00;95655.28;10532931;28;1831;-72
2023/08/13 16:00:11;;;;;;;;;;;;;;;29.78;100.00;95672.44;10532830;28;1878;-73
2023/08/13 16:05:19;;;;;;;;;;;;;;;29.38;100.00;95674.47;10532010;28;1791;-73
2023/08/13 16:10:24;;;;;;;;;;;;;;;29.13;100.00;95676.47;10532366;28;1914;-74
2023/08/13 16:15:28;;;;;;;;;;;;;;;28.97;100.00;95676.88;10520542;28;1923;-73
2023/08/13 16:20:35;;;;;;;;;;;;;;;29.13;100.00;95671.72;10533488;28;1897;-73
2023/08/13 16:25:42;;;;;;;;;;;;;;;28.89;100.00;95664.97;10529503;28;1910;-73
2023/08/13 16:30:46;;;;;;;;;;;;;;;29.12;100.00;95661.03;10529110;28;1891;-71
2023/08/13 16:35:53;;;;;;;;;;;;;;;28.94;100.00;95663.81;10527727;28;1896;-74
2023/08/13 16:40:56;;;;;;;;;;;;;;;28.59;100.00;95650.72;10531110;28;4526;-74
2023/08/13 16:45:59;;;;;;;;;;;;;;;28.19;100.00;95652.59;10544332;28;1982;-73
2023/08/13 16:51:07;;;;;;;;;;;;;;;27.86;100.00;95653.63;10529185;28;2105;-74
2023/08/13 16:56:15;;;;;;;;;;;;;;;27.69;100.00;95660.69;10532002;28;1842;-74
2023/08/13 17:01:24;;;;;;;;;;;;;;;26.37;100.00;95667.84;10530886;28;1902;-74
2023/08/13 17:06:29;;;;;;;;;;;;;;;25.63;100.00;95679.50;10550350;28;2045;-73
2023/08/13 17:11:35;;;;;;;;;;;;;;;25.19;100.00;95688.31;10539188;28;1932;-74
2023/08/13 17:16:41;;;;;;;;;;;;;;;25.05;100.00;95682.59;10537058;28;2242;-74
2023/08/13 17:21:48;;;;;;;;;;;;;;;25.07;100.00;95696.78;10534988;28;1884;-71
2023/08/13 17:26:51;;;;;;;;;;;;;;;24.90;100.00;95697.25;10537642;28;1949;-73
2023/08/13 17:31:54;;;;;;;;;;;;;;;24.89;100.00;95709.44;10541895;28;1776;-73
2023/08/13 17:36:58;;;;;;;;;;;;;;;24.85;100.00;95722.31;10539140;28;1751;-74
2023/08/13 17:42:07;;;;;;;;;;;;;;;24.69;100.00;95706.75;10528038;28;1831;-73
2023/08/13 17:47:12;;;;;;;;;;;;;;;24.54;100.00;95707.63;10558157;27;2129;-73
2023/08/13 17:52:19;;;;;;;;;;;;;;;24.21;100.00;95683.44;10540984;28;1907;-74
2023/08/13 17:57:22;;;;;;;;;;;;;;;24.10;100.00;95687.91;10554055;27;1881;-75
2023/08/13 18:02:27;;;;;;;;;;;;;;;24.07;100.00;95697.69;10538692;28;2099;-74
2023/08/13 18:07:30;;;;;;;;;;;;;;;24.03;100.00;95704.25;10550989;27;1969;-73
2023/08/13 18:12:36;;;;;;;;;;;;;;;23.94;100.00;95701.75;10538271;28;2547;-74
2023/08/13 18:17:41;;;;;;;;;;;;;;;23.86;100.00;95694.53;10539902;28;2034;-73
2023/08/13 18:22:53;;;;;;;;;;;;;;;23.81;100.00;95670.09;10543658;28;1906;-73
2023/08/13 18:27:57;;;;;;;;;;;;;;;23.73;100.00;95689.16;10533990;28;1981;-73
2023/08/13 18:33:01;;;;;;;;;;;;;;;23.86;100.00;95683.53;10536143;28;1901;-73
2023/08/13 18:38:04;;;;;;;;;;;;;;;23.91;100.00;95678.53;10534900;28;1859;-73
2023/08/13 18:43:14;;;;;;;;;;;;;;;23.93;100.00;95719.38;10537036;28;4588;-72
2023/08/13 18:48:18;;;;;;;;;;;;;;;23.83;100.00;95750.13;10535638;28;1994;-74
2023/08/13 18:53:22;;;;;;;;;;;;;;;23.78;100.00;95777.84;10549423;28;1870;-74
2023/08/13 18:58:26;;;;;;;;;;;;;;;23.58;100.00;95818.94;10534902;28;1910;-73
2023/08/13 19:03:29;;;;;;;;;;;;;;;23.13;100.00;95839.38;10537050;28;1958;-73
2023/08/13 19:08:34;;;;;;;;;;;;;;;21.04;100.00;95865.47;10523136;28;2274;-71
2023/08/13 19:13:39;;;;;;;;;;;;;;;20.26;100.00;95868.13;10526330;28;1896;-72
2023/08/13 19:18:42;;;;;;;;;;;;;;;20.23;100.00;95887.88;10529454;28;1896;-71
2023/08/13 19:23:49;;;;;;;;;;;;;;;20.12;100.00;95882.03;10531150;28;2189;-72
2023/08/13 19:28:56;;;;;;;;;;;;;;;20.08;100.00;95889.28;10537041;28;2050;-73
2023/08/13 19:33:59;;;;;;;;;;;;;;;19.97;100.00;95894.31;10533815;28;1937;-73
2023/08/13 19:39:05;;;;;;;;;;;;;;;19.85;100.00;95893.41;10534902;28;1971;-73
2023/08/13 19:44:14;;;;;;;;;;;;;;;19.91;100.00;95898.38;10547245;27;4658;-73
2023/08/13 19:49:38;;;;;;;;;;;;;;;19.99;100.00;95894.00;10536141;28;1886;-74
2023/08/13 19:54:42;;;;;;;;;;;;;;;20.11;100.00;95905.00;10550075;27;1799;-74
2023/08/13 19:59:45;;;;;;;;;;;;;;;20.20;100.00;95889.34;10526035;28;2100;-75
2023/08/13 20:04:48;;;;;;;;;;;;;;;20.21;100.00;95862.84;10530348;28;2414;-76
2023/08/13 20:09:55;;;;;;;;;;;;;;;20.34;100.00;95845.41;10533531;28;1983;-75
2023/08/13 20:14:58;;;;;;;;;;;;;;;20.35;100.00;95825.16;10535315;28;1847;-73
2023/08/13 20:20:02;;;;;;;;;;;;;;;20.41;100.00;95859.31;10525049;28;1977;-72
2023/08/13 20:25:07;;;;;;;;;;;;;;;20.50;100.00;95872.94;10541483;27;2074;-72
2023/08/13 20:30:12;;;;;;;;;;;;;;;20.64;100.00;95864.47;10529946;28;1926;-72
2023/08/13 20:35:18;;;;;;;;;;;;;;;20.71;100.00;95854.56;10526495;28;1876;-73
2023/08/13 20:40:23;;;;;;;;;;;;;;;20.64;100.00;95876.19;10540889;28;1927;-71
2023/08/13 20:45:27;;;;;;;;;;;;;;;20.61;100.00;95914.28;10539937;28;4922;-72
2023/08/13 20:50:30;;;;;;;;;;;;;;;20.63;100.00;95928.41;10535910;28;1998;-73
2023/08/13 20:55:35;;;;;;;;;;;;;;;20.58;100.00;95918.47;10544366;28;1883;-73
2023/08/13 21:00:42;;;;;;;;;;;;;;;20.54;100.00;95933.13;10542588;28;2784;-73
2023/08/13 21:05:45;;;;;;;;;;;;;;;20.51;100.00;95934.59;10536352;28;1835;-74
2023/08/13 21:10:51;;;;;;;;;;;;;;;20.41;100.00;95960.31;10536982;28;2346;-73
2023/08/13 21:15:57;;;;;;;;;;;;;;;20.36;100.00;95989.75;10535022;28;2132;-73
2023/08/13 21:21:02;;;;;;;;;;;;;;;20.32;100.00;96006.00;10544112;27;1979;-74
2023/08/13 21:26:06;;;;;;;;;;;;;;;20.32;100.00;96022.38;10538556;28;1985;-72
2023/08/13 21:31:11;;;;;;;;;;;;;;;20.38;100.00;96031.19;10553432;27;2089;-73
2023/08/13 21:36:16;;;;;;;;;;;;;;;20.40;100.00;96029.72;10533936;28;1915;-73
2023/08/13 21:41:21;;;;;;;;;;;;;;;20.33;100.00;96021.25;10536231;28;1894;-72
2023/08/13 21:46:25;;;;;;;;;;;;;;;20.09;100.00;96019.13;10539137;28;1902;-73
2023/08/13 21:51:28;;;;;;;;;;;;;;;19.77;100.00;96006.91;10536414;28;1981;-75
2023/08/13 21:56:32;;;;;;;;;;;;;;;19.66;100.00;95987.38;10535685;28;1847;-75
2023/08/13 22:01:37;;;;;;;;;;;;;;;19.65;100.00;95984.97;10533599;28;1942;-73
2023/08/13 22:06:49;;;;;;;;;;;;;;;19.65;100.00;95984.97;10545996;28;1926;-75
2023/08/13 22:11:54;;;;;;;;;;;;;;;19.72;100.00;95971.63;10536339;28;2085;-73
2023/08/13 22:16:58;;;;;;;;;;;;;;;19.74;100.00;95963.13;10534411;28;2124;-71
2023/08/13 22:22:05;;;;;;;;;;;;;;;19.76;100.00;95961.66;10534244;28;1965;-73
2023/08/13 22:27:09;;;;;;;;;;;;;;;19.83;100.00;95961.16;10538173;28;1893;-73
2023/08/13 22:32:14;;;;;;;;;;;;;;;19.83;100.00;95959.22;10540517;27;1918;-72
2023/08/13 22:37:23;;;;;;;;;;;;;;;19.80;100.00;95961.81;10553271;28;1887;-73
2023/08/13 22:42:28;;;;;;;;;;;;;;;19.78;100.00;95962.13;10539966;28;4656;-73
2023/08/13 22:47:33;;;;;;;;;;;;;;;19.79;100.00;95960.22;10533360;28;1930;-71
2023/08/13 22:52:39;;;;;;;;;;;;;;;19.76;100.00;95971.78;10540473;28;2278;-73
2023/08/13 22:57:45;;;;;;;;;;;;;;;19.66;100.00;95981.13;10539050;28;1961;-74
2023/08/13 23:02:49;;;;;;;;;;;;;;;19.64;100.00;95969.72;10538235;28;1866;-73
2023/08/13 23:07:54;;;;;;;;;;;;;;;19.65;100.00;95949.50;10535523;28;1983;-73
2023/08/13 23:12:57;;;;;;;;;;;;;;;19.68;100.00;95932.50;10548120;28;1909;-73
2023/08/13 23:18:01;;;;;;;;;;;;;;;19.63;100.00;95940.88;10531570;28;1815;-74
2023/08/13 23:23:17;;;;;;;;;;;;;;;19.55;100.00;95936.22;10532490;28;1878;-73
2023/08/13 23:28:23;;;;;;;;;;;;;;;19.48;100.00;95930.47;10527151;28;1918;-73
2023/08/13 23:33:26;;;;;;;;;;;;;;;19.42;100.00;95908.06;10530194;28;1826;-73
2023/08/13 23:38:34;;;;;;;;;;;;;;;19.33;100.00;95899.88;10536751;28;1866;-72
2023/08/13 23:43:38;;;;;;;;;;;;;;;19.27;100.00;95897.66;10526004;28;1989;-73
2023/08/13 23:48:42;;;;;;;;;;;;;;;19.19;100.00;95893.84;10528373;28;2345;-74
2023/08/13 23:53:53;;;;;;;;;;;;;;;19.13;100.00;95886.97;10528975;28;2077;-74
2023/08/13 23:58:58;;;;;;;;;;;;;;;19.12;100.00;95885.38;10525585;28;1947;-73
